Share

McCook, NE (69001)

KNEMCCOO2 Elev 2609 ft | 40.21 °N, 100.64 °W | Change Station

Current weather conditions updated 3 minutes ago

Partly Cloudy
Partly Cloudy
74.1 °F
Feels Like 77 °F
N
2.4
Wind Variable Wind from WSW
Gusts 12.3 mph
Sunrise 6:57 AM
Sunset 8:26 PM
Moon Waning Gibbous

Today is forecast to be nearly the same temperature as yesterday.

Pressure 29.92 in
Visibility 10.0 miles
Clouds Few 4300 ft
Heat Index 77 °F
Dew Point 55 °F
Humidity 51%
Rainfall 0.00 in
Snow Depth Not available.
UV 10 out of 16
Pollen 9.90 out of 12
Air Quality Not available.
Flu Activity Sporadic
METAR KMCK 201853Z AUTO 15007KT 10SM FEW043 24/12 A2996 RMK AO2 SLP130 T02390117

More Conditions Fewer Conditions

Pressure 29.92 in
Visibility 10.0 miles
Clouds Few 4300 ft
Heat Index 77 °F
Dew Point 55 °F
Humidity 51%
Rainfall 0.00 in
Snow Depth Not available.
UV 10 out of 16
Pollen 9.90 out of 12
Air Quality Not available.
Flu Activity Sporadic
METAR KMCK 201853Z AUTO 15007KT 10SM FEW043 24/12 A2996 RMK AO2 SLP130 T02390117

More Conditions Fewer Conditions

10-Day Weather Forecast

Almanac

Astronomy

Apr. 20, 2014 Rise Set
Actual Time 6:57 AM CDT 8:26 PM CDT
Civil Twilight 6:28 AM CDT 8:55 PM CDT
Nautical Twilight 5:54 AM CDT 9:29 PM CDT
Astronomical Twilight 5:18 AM CDT 10:05 PM CDT
Moon 1:07 AM CDT 11:19 AM CDT
Length of Visible Light 14h 26m
Length of Day
13h 29m
Tomorrow will be 2m 28s longer.
Waning Gibbous, 67% of the Moon is Illuminated
Today
Waning Gibbous
Apr 22
Last Quarter
Apr 29
New
May 6
First Quarter
May 14
Full

Today's Extremes

State Highs State Lows

Community

  • Morning Sun
    Morning Sun
  • after rain
    after rain
  • Columbine
    Columbine
  • Easter Sunrise
    Easter Sunrise
  • Easter Eve - The Promise - Lake Palestine, TX
    Easter Eve - The Promise - Lake Palestine, TX

WunderPhotos

Upload Photos

1,703,311 photos uploaded!

WunderBlogs® & News

Nearby

Snow Depth

Station Depth Elevation
No new snow has been reported.

Coastal Water Temperatures

Place Temperature
No Stations Reporting

Earthquake Activity

City Distance Mag. Time & Date
No recent earthquake activity has been reported nearby.
Minimum magnitude displayed is 2.5.

Nearby Weather Stations

Station Location Temp. Heat Index Dew Point Humidity Wind Precip. Elev Updated Type
McCook, NE 74.1 °F 77 °F 55 °F 51% WSW  at  2.4 mph 0.00 in / hr 2609 ft 1:59 PM CDT Normal
Kastens Farms, Herndon, KS 72.6 °F 77 °F 54 °F 53% ESE  at  0.0 mph 0.00 in / hr 2967 ft 1:56 PM CDT Normal

Show More Stations Show Fewer Stations

What do you think?

We're not finished. Please let us know what you like, what you don't like, and what you are still missing.